createdAt,value
2022-08-22T00:00:59.562Z,16.00
2022-08-22T00:02:46.943Z,15.80
2022-08-22T00:02:47.664Z,15.50
2022-08-22T00:02:58.381Z,15.50
2022-08-22T00:02:58.943Z,15.90
2022-08-22T00:03:04.028Z,15.50
2022-08-22T00:03:11.928Z,15.60
2022-08-22T00:03:42.738Z,15.90
2022-08-22T00:06:20.414Z,15.90
2022-08-22T00:09:00.116Z,16.00
2022-08-22T00:11:41.650Z,16.00
2022-08-22T00:14:18.264Z,16.00
2022-08-22T00:16:56.633Z,16.20
2022-08-22T00:19:34.405Z,16.20
2022-08-22T00:22:07.949Z,16.20
2022-08-22T00:24:43.170Z,16.20
2022-08-22T00:27:18.321Z,16.20
2022-08-22T00:29:52.620Z,16.20
2022-08-22T00:32:28.274Z,16.10
2022-08-22T00:35:02.931Z,16.10
2022-08-22T00:37:36.231Z,16.20
2022-08-22T00:40:15.900Z,16.20
2022-08-22T00:43:09.121Z,16.20
2022-08-22T00:46:00.011Z,16.30
2022-08-22T00:49:13.874Z,16.30
2022-08-22T00:52:16.355Z,16.30
2022-08-22T00:55:18.537Z,16.20
2022-08-22T00:58:07.668Z,16.20
2022-08-22T01:00:44.118Z,16.20
2022-08-22T01:03:48.420Z,16.10
2022-08-22T01:06:25.449Z,16.10
2022-08-22T01:09:03.951Z,16.00
2022-08-22T01:11:52.364Z,16.10
2022-08-22T01:14:34.569Z,16.10
2022-08-22T01:17:29.437Z,16.00
2022-08-22T01:20:24.341Z,15.90
2022-08-22T01:23:41.174Z,15.80
2022-08-22T01:26:44.814Z,15.70
2022-08-22T01:29:50.095Z,15.70
2022-08-22T01:32:57.148Z,15.70
2022-08-22T01:36:08.233Z,15.70
2022-08-22T01:39:01.152Z,15.70
2022-08-22T01:42:00.473Z,15.70
2022-08-22T01:44:51.037Z,15.60
2022-08-22T01:47:24.259Z,15.60
2022-08-22T01:49:59.018Z,15.60
2022-08-22T01:52:37.692Z,15.60
2022-08-22T01:55:15.052Z,15.50
2022-08-22T01:57:53.211Z,15.50
2022-08-22T02:00:35.298Z,15.50
2022-08-22T02:03:17.758Z,15.50
2022-08-22T02:05:53.524Z,15.50
2022-08-22T02:08:32.777Z,15.50
2022-08-22T02:11:06.968Z,15.60
2022-08-22T02:13:47.374Z,15.60
2022-08-22T02:16:25.285Z,15.60
2022-08-22T02:19:11.307Z,15.60
2022-08-22T02:21:50.733Z,15.60
2022-08-22T02:24:26.424Z,15.60
2022-08-22T02:27:10.492Z,15.60
2022-08-22T02:29:49.611Z,15.60
2022-08-22T02:32:26.257Z,15.60
2022-08-22T02:35:03.690Z,15.70
2022-08-22T02:37:39.741Z,15.70
2022-08-22T02:40:17.618Z,15.70
2022-08-22T02:42:56.629Z,15.70
2022-08-22T02:45:32.516Z,15.70
2022-08-22T02:48:12.657Z,15.70
2022-08-22T02:50:49.378Z,15.70
2022-08-22T02:53:23.293Z,15.80
2022-08-22T02:55:59.306Z,15.80
2022-08-22T02:58:40.737Z,15.80
2022-08-22T03:01:23.053Z,15.90
2022-08-22T03:03:54.067Z,15.90
2022-08-22T03:06:37.974Z,15.90
2022-08-22T03:09:28.847Z,15.90
2022-08-22T03:12:09.984Z,15.90
2022-08-22T03:14:48.607Z,15.90
2022-08-22T03:17:25.025Z,15.90
2022-08-22T03:20:01.414Z,15.90
2022-08-22T03:22:39.416Z,15.90
2022-08-22T03:25:15.534Z,15.90
2022-08-22T03:27:51.632Z,15.90
2022-08-22T03:30:41.738Z,15.90
2022-08-22T03:33:20.057Z,16.00
2022-08-22T03:36:12.998Z,16.00
2022-08-22T03:38:55.420Z,16.10
2022-08-22T03:41:44.846Z,16.20
2022-08-22T03:44:40.061Z,16.30
2022-08-22T03:47:33.455Z,16.20
2022-08-22T03:50:57.144Z,16.20
2022-08-22T03:54:12.073Z,16.30
2022-08-22T03:57:10.370Z,16.30
2022-08-22T04:00:21.233Z,16.30
2022-08-22T04:03:24.315Z,16.30
2022-08-22T04:06:31.787Z,16.20
2022-08-22T04:09:29.131Z,16.20
2022-08-22T04:12:15.532Z,16.20
2022-08-22T04:15:15.498Z,16.10
2022-08-22T04:18:03.580Z,16.10
2022-08-22T04:20:59.707Z,16.20
2022-08-22T04:23:47.558Z,16.20
2022-08-22T04:26:20.724Z,16.20
2022-08-22T04:28:54.006Z,16.20
2022-08-22T04:31:28.622Z,16.30
2022-08-22T04:34:02.237Z,16.30
2022-08-22T04:36:36.724Z,16.30
2022-08-22T04:39:13.682Z,16.30
2022-08-22T04:41:49.391Z,16.30
2022-08-22T04:44:25.453Z,16.40
2022-08-22T04:46:59.596Z,16.40
2022-08-22T04:49:36.501Z,16.40
2022-08-22T04:52:14.022Z,16.30
2022-08-22T04:54:57.360Z,16.40
2022-08-22T04:57:34.170Z,16.40
2022-08-22T05:00:07.543Z,16.40
2022-08-22T05:02:40.782Z,16.50
2022-08-22T05:05:16.584Z,16.40
2022-08-22T05:07:51.336Z,16.50
2022-08-22T05:10:23.017Z,16.40
2022-08-22T05:13:02.406Z,16.50
2022-08-22T05:15:35.650Z,16.40
2022-08-22T05:18:09.382Z,16.40
2022-08-22T05:20:40.979Z,16.40
2022-08-22T05:23:17.363Z,16.50
2022-08-22T05:25:52.077Z,16.50
2022-08-22T05:28:33.732Z,16.60
2022-08-22T05:31:06.123Z,16.70
2022-08-22T05:33:41.742Z,16.70
2022-08-22T05:36:14.634Z,16.50
2022-08-22T05:38:48.560Z,16.50
2022-08-22T05:41:22.967Z,16.50
2022-08-22T05:43:53.751Z,16.50
2022-08-22T05:46:27.035Z,16.60
2022-08-22T05:48:59.926Z,16.60
2022-08-22T05:51:36.757Z,16.60
2022-08-22T05:54:13.987Z,16.50
2022-08-22T05:56:46.163Z,16.50
2022-08-22T05:59:24.885Z,16.60
2022-08-22T06:02:02.765Z,16.60
2022-08-22T06:04:38.998Z,16.70
2022-08-22T06:07:13.183Z,16.60
2022-08-22T06:10:06.583Z,16.60
2022-08-22T06:12:43.050Z,16.70
2022-08-22T06:15:20.931Z,16.80
2022-08-22T06:17:53.088Z,16.90
2022-08-22T06:20:24.258Z,16.90
2022-08-22T06:22:56.528Z,16.90
2022-08-22T06:25:32.374Z,16.80
2022-08-22T06:28:07.788Z,16.90
2022-08-22T06:30:38.428Z,16.90
2022-08-22T06:33:12.445Z,16.80
2022-08-22T06:36:02.377Z,16.80
2022-08-22T06:38:37.564Z,16.90
2022-08-22T06:41:10.783Z,16.90
2022-08-22T06:43:43.468Z,16.80
2022-08-22T06:46:16.281Z,16.70
2022-08-22T06:48:46.555Z,16.70
2022-08-22T06:51:18.901Z,16.80
2022-08-22T06:53:53.697Z,16.90
2022-08-22T06:56:29.598Z,16.80
2022-08-22T06:59:01.293Z,16.80
2022-08-22T07:01:50.662Z,17.00
2022-08-22T07:04:23.991Z,17.00
2022-08-22T07:06:55.229Z,17.00
2022-08-22T07:09:27.762Z,17.10
2022-08-22T07:12:01.205Z,17.10
2022-08-22T07:14:34.553Z,17.20
2022-08-22T07:17:05.717Z,17.20
2022-08-22T07:19:36.995Z,17.20
2022-08-22T07:22:14.366Z,17.20
2022-08-22T07:24:48.597Z,17.20
2022-08-22T07:27:30.878Z,17.40
2022-08-22T07:30:10.280Z,17.30
2022-08-22T07:32:50.504Z,17.30
2022-08-22T07:35:21.818Z,17.20
2022-08-22T07:37:58.460Z,17.20
2022-08-22T07:40:33.963Z,17.20
2022-08-22T07:43:13.804Z,17.20
2022-08-22T07:45:52.311Z,17.40
2022-08-22T07:48:29.366Z,17.30
2022-08-22T07:51:06.764Z,17.20
2022-08-22T07:53:41.711Z,17.10
2022-08-22T07:56:16.670Z,17.30
2022-08-22T07:58:49.998Z,17.20
2022-08-22T08:01:22.382Z,17.20
2022-08-22T08:03:57.198Z,17.20
2022-08-22T08:06:28.427Z,17.20
2022-08-22T08:08:58.250Z,17.20
2022-08-22T08:11:32.316Z,17.20
2022-08-22T08:14:08.688Z,17.20
2022-08-22T08:16:45.745Z,17.10
2022-08-22T08:19:16.683Z,17.20
2022-08-22T08:21:50.503Z,17.30
2022-08-22T08:24:23.570Z,17.40
2022-08-22T08:27:14.021Z,17.40
2022-08-22T08:29:54.627Z,17.50
2022-08-22T08:32:25.554Z,17.70
2022-08-22T08:34:54.936Z,17.70
2022-08-22T08:37:27.492Z,17.80
2022-08-22T08:40:00.674Z,18.00
2022-08-22T08:43:16.946Z,18.20
2022-08-22T08:46:30.824Z,18.10
2022-08-22T08:49:42.200Z,18.10
2022-08-22T08:52:38.441Z,18.30
2022-08-22T08:55:22.610Z,18.40
2022-08-22T08:58:10.276Z,18.60
2022-08-22T09:00:57.031Z,18.60
2022-08-22T09:04:06.799Z,18.80
2022-08-22T09:07:22.995Z,18.80
2022-08-22T09:10:12.778Z,18.80
2022-08-22T09:13:23.516Z,18.90
2022-08-22T09:16:10.055Z,18.70
2022-08-22T09:19:07.458Z,18.80
2022-08-22T09:22:14.689Z,18.80
2022-08-22T09:25:11.872Z,18.90
2022-08-22T09:27:51.504Z,18.00
2022-08-22T09:30:28.613Z,18.80
2022-08-22T09:33:02.032Z,18.70
2022-08-22T09:35:43.772Z,18.70
2022-08-22T09:38:34.749Z,18.70
2022-08-22T09:41:16.099Z,18.60
2022-08-22T09:43:51.091Z,18.70
2022-08-22T09:46:31.346Z,18.60
2022-08-22T09:49:11.382Z,18.70
2022-08-22T09:51:49.792Z,18.70
2022-08-22T09:54:34.978Z,18.60
2022-08-22T09:57:26.695Z,18.60
2022-08-22T10:00:16.028Z,18.60
2022-08-22T10:02:58.229Z,18.20
2022-08-22T10:05:44.035Z,17.80
2022-08-22T10:08:26.649Z,17.60
2022-08-22T10:11:08.415Z,17.40
2022-08-22T10:14:03.744Z,17.30
2022-08-22T10:16:55.322Z,17.30
2022-08-22T10:19:30.272Z,17.30
2022-08-22T10:22:24.173Z,17.30
2022-08-22T10:25:23.904Z,17.40
2022-08-22T10:28:10.503Z,17.40
2022-08-22T10:30:50.710Z,17.50
2022-08-22T10:33:25.822Z,17.50
2022-08-22T10:36:11.893Z,17.50
2022-08-22T10:38:46.873Z,17.40
2022-08-22T10:41:30.537Z,17.50
2022-08-22T10:44:05.132Z,17.50
2022-08-22T10:46:42.203Z,17.50
2022-08-22T10:49:19.630Z,17.50
2022-08-22T10:51:57.676Z,17.60
2022-08-22T10:54:39.934Z,17.70
2022-08-22T10:57:36.408Z,17.80
2022-08-22T11:00:14.556Z,17.90
2022-08-22T11:02:58.456Z,17.90
2022-08-22T11:05:35.218Z,18.00
2022-08-22T11:08:34.823Z,18.00
2022-08-22T11:11:18.137Z,18.00
2022-08-22T11:13:59.389Z,18.10
2022-08-22T11:16:45.607Z,18.10
2022-08-22T11:19:28.825Z,18.20
2022-08-22T11:22:10.254Z,18.20
2022-08-22T11:25:11.212Z,18.30
2022-08-22T11:27:49.218Z,18.50
2022-08-22T11:30:22.016Z,18.50
2022-08-22T11:33:39.063Z,18.60
2022-08-22T11:36:31.037Z,18.80
2022-08-22T11:39:18.733Z,18.90
2022-08-22T11:41:59.013Z,19.00
2022-08-22T11:44:36.785Z,19.00
2022-08-22T11:47:26.509Z,19.00
2022-08-22T11:50:01.471Z,19.00
2022-08-22T11:53:07.798Z,19.00
2022-08-22T11:55:42.500Z,19.00
2022-08-22T11:58:29.365Z,19.10
2022-08-22T12:01:04.419Z,19.10
2022-08-22T12:04:15.382Z,19.00
2022-08-22T12:07:13.858Z,19.00
2022-08-22T12:09:55.166Z,19.10
2022-08-22T12:12:36.229Z,19.20
2022-08-22T12:15:12.779Z,19.30
2022-08-22T12:18:26.662Z,19.30
2022-08-22T12:21:22.744Z,19.10
2022-08-22T12:24:20.831Z,19.10
2022-08-22T12:27:11.673Z,19.30
2022-08-22T12:29:49.050Z,19.20
2022-08-22T12:32:45.803Z,19.30
2022-08-22T12:35:33.495Z,19.50
2022-08-22T12:38:28.262Z,19.70
2022-08-22T12:41:28.289Z,19.80
2022-08-22T12:44:18.394Z,19.80
2022-08-22T12:47:06.839Z,19.60
2022-08-22T12:49:54.015Z,19.70
2022-08-22T12:52:39.186Z,19.60
2022-08-22T12:55:30.633Z,19.90
2022-08-22T12:58:09.845Z,19.90
2022-08-22T13:00:43.903Z,19.80
2022-08-22T13:03:25.823Z,20.10
2022-08-22T13:06:00.401Z,20.40
2022-08-22T13:08:32.485Z,20.50
2022-08-22T13:11:09.820Z,20.50
2022-08-22T13:13:56.185Z,20.40
2022-08-22T13:16:36.340Z,20.50
2022-08-22T13:19:13.730Z,20.80
2022-08-22T13:21:49.155Z,21.20
2022-08-22T13:24:38.772Z,21.00
2022-08-22T13:27:16.320Z,21.20
2022-08-22T13:29:54.565Z,20.70
2022-08-22T13:32:34.067Z,20.80
2022-08-22T13:35:07.336Z,21.00
2022-08-22T13:37:45.530Z,21.10
2022-08-22T13:40:26.806Z,21.10
2022-08-22T13:43:05.754Z,21.10
2022-08-22T13:45:37.655Z,21.20
2022-08-22T13:48:12.493Z,21.30
2022-08-22T13:50:59.685Z,21.40
2022-08-22T13:53:35.119Z,21.40
2022-08-22T13:56:15.889Z,21.30
2022-08-22T13:58:48.386Z,21.30
2022-08-22T14:01:32.215Z,21.20
2022-08-22T14:04:28.843Z,21.00
2022-08-22T14:07:24.181Z,20.90
2022-08-22T14:09:57.386Z,21.00
2022-08-22T14:12:33.325Z,21.10
2022-08-22T14:15:24.260Z,21.10
2022-08-22T14:18:03.236Z,21.30
2022-08-22T14:20:33.520Z,21.30
2022-08-22T14:23:08.034Z,21.20
2022-08-22T14:25:39.930Z,21.20
2022-08-22T14:28:21.528Z,21.30
2022-08-22T14:31:00.669Z,21.30
2022-08-22T14:33:35.268Z,21.20
2022-08-22T14:36:21.500Z,21.20
2022-08-22T14:38:57.136Z,21.40
2022-08-22T14:41:52.784Z,21.50
2022-08-22T14:44:26.484Z,21.60
2022-08-22T14:46:58.584Z,21.70
2022-08-22T14:49:31.804Z,21.80
2022-08-22T14:52:08.999Z,21.80
2022-08-22T14:54:40.244Z,21.80
2022-08-22T14:57:20.102Z,21.80
2022-08-22T14:59:52.751Z,21.80
2022-08-22T15:02:29.112Z,21.90
2022-08-22T15:05:05.423Z,21.90
2022-08-22T15:07:37.397Z,21.90
2022-08-22T15:10:11.881Z,21.90
2022-08-22T15:12:49.780Z,21.90
2022-08-22T15:15:32.514Z,22.00
2022-08-22T15:18:19.912Z,22.00
2022-08-22T15:20:52.142Z,22.00
2022-08-22T15:23:23.711Z,21.90
2022-08-22T15:26:03.714Z,21.80
2022-08-22T15:28:52.705Z,21.80
2022-08-22T15:31:23.275Z,21.80
2022-08-22T15:33:53.059Z,21.70
2022-08-22T15:36:24.439Z,21.70
2022-08-22T15:38:54.908Z,21.70
2022-08-22T15:41:39.549Z,21.60
2022-08-22T15:44:30.593Z,21.70
2022-08-22T15:47:15.168Z,21.60
2022-08-22T15:49:59.161Z,21.60
2022-08-22T15:52:30.862Z,21.60
2022-08-22T15:55:20.424Z,21.50
2022-08-22T15:57:59.887Z,21.50
2022-08-22T16:00:35.659Z,21.50
2022-08-22T16:03:08.611Z,21.50
2022-08-22T16:05:54.974Z,21.30
2022-08-22T16:08:32.768Z,21.30
2022-08-22T16:11:32.413Z,21.40
2022-08-22T16:14:24.286Z,21.30
2022-08-22T16:16:56.946Z,21.30
2022-08-22T16:19:27.311Z,21.10
2022-08-22T16:22:18.986Z,21.10
2022-08-22T16:25:10.291Z,21.10
2022-08-22T16:27:58.756Z,20.80
2022-08-22T16:30:47.345Z,20.70
2022-08-22T16:33:32.233Z,20.70
2022-08-22T16:36:39.106Z,20.60
2022-08-22T16:39:13.141Z,20.50
2022-08-22T16:41:44.714Z,20.50
2022-08-22T16:44:39.860Z,20.40
2022-08-22T16:47:15.373Z,20.30
2022-08-22T16:50:04.866Z,20.30
2022-08-22T16:52:51.987Z,20.20
2022-08-22T16:56:11.116Z,20.20
2022-08-22T16:59:13.880Z,20.20
2022-08-22T17:02:04.770Z,20.20
2022-08-22T17:04:41.458Z,20.10
2022-08-22T17:07:23.216Z,20.10
2022-08-22T17:10:12.046Z,20.10
2022-08-22T17:13:06.268Z,20.00
2022-08-22T17:15:41.057Z,20.00
2022-08-22T17:18:24.415Z,20.00
2022-08-22T17:21:05.657Z,19.90
2022-08-22T17:23:41.846Z,20.00
2022-08-22T17:26:27.798Z,19.90
2022-08-22T17:29:06.052Z,19.90
2022-08-22T17:31:44.737Z,19.90
2022-08-22T17:34:26.272Z,19.80
2022-08-22T17:37:07.653Z,19.80
2022-08-22T17:39:55.963Z,19.80
2022-08-22T17:42:39.603Z,19.70
2022-08-22T17:45:17.134Z,19.60
2022-08-22T17:47:50.988Z,19.60
2022-08-22T17:50:26.890Z,19.50
2022-08-22T17:53:02.437Z,19.50
2022-08-22T17:55:35.649Z,19.50
2022-08-22T17:58:13.582Z,19.40
2022-08-22T18:01:13.551Z,19.40
2022-08-22T18:03:50.515Z,19.40
2022-08-22T18:06:24.073Z,19.40
2022-08-22T18:09:15.167Z,19.30
2022-08-22T18:11:52.374Z,19.30
2022-08-22T18:14:29.893Z,19.30
2022-08-22T18:17:00.963Z,19.30
2022-08-22T18:19:43.568Z,19.20
2022-08-22T18:22:20.488Z,19.20
2022-08-22T18:24:55.717Z,19.10
2022-08-22T18:27:35.433Z,19.10
2022-08-22T18:30:17.512Z,19.00
2022-08-22T18:32:57.546Z,19.00
2022-08-22T18:35:30.229Z,19.20
2022-08-22T18:38:19.682Z,19.30
2022-08-22T18:40:58.365Z,19.30
2022-08-22T18:43:38.383Z,19.30
2022-08-22T18:46:34.140Z,19.30
2022-08-22T18:49:34.763Z,19.30
2022-08-22T18:52:16.920Z,19.20
2022-08-22T18:55:02.533Z,19.10
2022-08-22T19:00:49.468Z,19.20
2022-08-22T19:03:42.490Z,19.00
2022-08-22T19:06:43.952Z,18.90
2022-08-22T19:09:49.252Z,18.90
2022-08-22T19:12:40.531Z,19.00
2022-08-22T19:15:30.006Z,19.00
2022-08-22T19:18:16.164Z,19.10
2022-08-22T19:21:02.564Z,19.20
2022-08-22T19:23:47.661Z,19.20
2022-08-22T19:26:38.744Z,19.10
2022-08-22T19:29:46.274Z,19.10
2022-08-22T19:33:02.012Z,19.00
2022-08-22T19:35:46.045Z,19.00
2022-08-22T19:38:53.232Z,19.00
2022-08-22T19:41:57.060Z,19.00
2022-08-22T19:44:35.865Z,19.10
2022-08-22T19:47:24.120Z,19.10
2022-08-22T19:50:00.418Z,19.10
2022-08-22T19:52:46.762Z,19.10
2022-08-22T19:55:24.104Z,19.10
2022-08-22T19:58:04.771Z,19.10
2022-08-22T20:00:53.975Z,19.10
2022-08-22T20:03:35.078Z,19.10
2022-08-22T20:06:33.757Z,19.10
2022-08-22T20:09:14.202Z,19.10
2022-08-22T20:11:48.878Z,19.20
2022-08-22T20:14:30.327Z,19.20
2022-08-22T20:17:07.809Z,19.10
2022-08-22T20:22:46.637Z,19.10
2022-08-22T20:25:42.842Z,19.10
2022-08-22T20:28:34.381Z,19.10
2022-08-22T20:31:10.544Z,19.10
2022-08-22T20:33:42.536Z,19.00
2022-08-22T20:36:27.952Z,19.00
2022-08-22T20:39:04.214Z,19.00
2022-08-22T20:41:38.716Z,19.00
2022-08-22T20:44:13.526Z,19.00
2022-08-22T20:46:54.991Z,19.00
2022-08-22T20:49:28.895Z,19.00
2022-08-22T20:52:00.550Z,19.00
2022-08-22T20:54:32.299Z,19.00
2022-08-22T20:57:03.453Z,18.90
2022-08-22T20:59:37.149Z,19.00
2022-08-22T21:02:19.128Z,19.00
2022-08-22T21:04:54.150Z,19.00
2022-08-22T21:07:24.948Z,18.90
2022-08-22T21:10:21.711Z,18.90
2022-08-22T21:13:07.474Z,18.90
2022-08-22T21:15:39.348Z,18.90
2022-08-22T21:18:09.632Z,18.90
2022-08-22T21:20:40.387Z,18.90
2022-08-22T21:23:12.908Z,18.90
2022-08-22T21:25:52.046Z,18.90
2022-08-22T21:28:29.312Z,18.90
2022-08-22T21:30:58.893Z,18.90
2022-08-22T21:33:29.284Z,18.90
2022-08-22T21:36:00.592Z,18.80
2022-08-22T21:38:29.771Z,18.80
2022-08-22T21:41:05.416Z,18.80
2022-08-22T21:43:38.070Z,18.80
2022-08-22T21:46:08.444Z,18.80
2022-08-22T21:48:43.740Z,18.80
2022-08-22T21:51:24.192Z,18.80
2022-08-22T21:54:16.036Z,18.80
2022-08-22T21:56:41.981Z,18.70
2022-08-22T21:59:50.798Z,18.80
2022-08-22T22:02:31.245Z,18.80
2022-08-22T22:05:08.245Z,18.80
2022-08-22T22:07:39.277Z,18.70
2022-08-22T22:10:11.447Z,18.70
2022-08-22T22:12:41.604Z,18.70
2022-08-22T22:15:12.790Z,18.70
2022-08-22T22:17:41.799Z,18.70
2022-08-22T22:20:13.830Z,18.60
2022-08-22T22:22:46.589Z,18.60
2022-08-22T22:25:40.536Z,18.60
2022-08-22T22:28:08.992Z,18.60
2022-08-22T22:30:38.030Z,18.50
2022-08-22T22:33:07.211Z,18.60
2022-08-22T22:35:39.809Z,18.60
2022-08-22T22:38:09.616Z,18.50
2022-08-22T22:40:38.790Z,18.50
2022-08-22T22:43:07.646Z,18.50
2022-08-22T22:45:36.491Z,18.50
2022-08-22T22:48:06.844Z,18.50
2022-08-22T22:50:40.757Z,18.50
2022-08-22T22:53:09.992Z,18.40
2022-08-22T22:55:41.704Z,18.40
2022-08-22T22:58:10.943Z,18.40
2022-08-22T23:00:40.619Z,18.40
2022-08-22T23:03:10.033Z,18.40
2022-08-22T23:05:40.558Z,18.40
2022-08-22T23:08:09.410Z,18.40
2022-08-22T23:10:38.330Z,18.40
2022-08-22T23:13:07.731Z,18.40
2022-08-22T23:15:36.285Z,18.30
2022-08-22T23:18:05.466Z,18.40
2022-08-22T23:20:34.286Z,18.20
2022-08-22T23:23:04.491Z,18.10
2022-08-22T23:25:33.492Z,17.90
2022-08-22T23:28:02.693Z,17.90
2022-08-22T23:30:31.974Z,17.80
2022-08-22T23:33:00.826Z,17.80
2022-08-22T23:35:29.766Z,17.80
2022-08-22T23:37:58.688Z,17.80
2022-08-22T23:40:29.392Z,17.90
2022-08-22T23:42:59.271Z,18.00
2022-08-22T23:45:28.516Z,18.00
2022-08-22T23:47:57.454Z,18.00
2022-08-22T23:50:26.360Z,18.10
2022-08-22T23:52:55.423Z,18.10
2022-08-22T23:55:24.157Z,18.20
2022-08-22T23:57:54.613Z,18.20
